Time;durP1;ratioP1;P1;durP2;ratioP2;P2;SDS_P1;SDS_P2;PMS_P1;PMS_P2;Temp;Humidity;BMP_temperature;BMP_pressure;BME280_temperature;BME280_humidity;BME280_pressure;Samples;Min_cycle;Max_cycle;Signal;HPM_P1;HPM_P2
2021/06/27 00:00:32;;;;;;;0.80;0.80;;;19.40;99.90;;;;;;6213269;23;20253;-78
2021/06/27 00:02:59;;;;;;;0.95;0.77;;;19.40;99.90;;;;;;6213902;23;20231;-77
2021/06/27 00:05:35;;;;;;;0.60;0.60;;;19.50;99.90;;;;;;6237445;22;20159;-79
2021/06/27 00:08:03;;;;;;;0.77;0.60;;;19.60;99.90;;;;;;6212397;23;20237;-78
2021/06/27 00:10:33;;;;;;;1.52;0.80;;;19.60;99.90;;;;;;6212663;23;20250;-79
2021/06/27 00:13:01;;;;;;;0.70;0.57;;;19.60;99.90;;;;;;6214038;23;20576;-77
2021/06/27 00:15:32;;;;;;;1.00;0.80;;;19.60;99.90;;;;;;6218951;23;20215;-79
2021/06/27 00:18:01;;;;;;;0.82;0.70;;;19.60;99.90;;;;;;6224380;23;20206;-78
2021/06/27 00:20:32;;;;;;;0.98;0.75;;;19.50;99.90;;;;;;6213785;23;20171;-76
2021/06/27 00:22:59;;;;;;;0.57;0.57;;;19.50;99.90;;;;;;6213422;23;20294;-78
2021/06/27 00:25:30;;;;;;;0.60;0.60;;;19.50;99.90;;;;;;6214224;23;20774;-78
2021/06/27 00:27:58;;;;;;;0.82;0.82;;;19.40;99.90;;;;;;6213347;23;20237;-78
2021/06/27 00:30:27;;;;;;;0.80;0.80;;;19.30;99.90;;;;;;6215051;23;20250;-78
2021/06/27 00:32:55;;;;;;;0.70;0.70;;;19.20;99.90;;;;;;6214933;23;20274;-79
2021/06/27 00:35:23;;;;;;;1.10;0.70;;;19.00;99.90;;;;;;6215294;23;20236;-77
2021/06/27 00:37:52;;;;;;;0.52;0.50;;;18.80;99.90;;;;;;6214550;23;20717;-77
2021/06/27 00:40:22;;;;;;;0.77;0.70;;;18.90;99.90;;;;;;6215283;23;20253;-78
2021/06/27 00:42:50;;;;;;;0.50;0.50;;;18.90;99.90;;;;;;6214746;23;20202;-78
2021/06/27 00:45:20;;;;;;;0.93;0.70;;;19.00;99.90;;;;;;6213646;23;20662;-79
2021/06/27 00:47:49;;;;;;;0.80;0.80;;;19.10;99.90;;;;;;6213085;23;20246;-78
2021/06/27 00:50:19;;;;;;;0.93;0.80;;;19.00;99.90;;;;;;6224631;23;20183;-78
2021/06/27 00:52:47;;;;;;;0.52;0.52;;;19.00;99.90;;;;;;6228656;22;20545;-78
2021/06/27 00:55:17;;;;;;;0.70;0.70;;;18.80;99.90;;;;;;6215499;23;20249;-77
2021/06/27 00:57:45;;;;;;;1.10;1.00;;;18.70;99.90;;;;;;6214355;23;20282;-78
2021/06/27 01:00:15;;;;;;;0.68;0.65;;;18.70;99.90;;;;;;6215521;23;20610;-77
2021/06/27 01:02:43;;;;;;;0.88;0.70;;;18.80;99.90;;;;;;6214940;23;20730;-77
2021/06/27 01:05:13;;;;;;;0.93;0.70;;;18.80;99.90;;;;;;6215162;23;20251;-77
2021/06/27 01:07:41;;;;;;;1.30;0.80;;;18.90;99.90;;;;;;6231697;23;20226;-78
2021/06/27 01:10:09;;;;;;;0.85;0.75;;;18.80;99.90;;;;;;6216249;23;20250;-78
2021/06/27 01:12:38;;;;;;;1.00;0.60;;;18.70;99.90;;;;;;6212382;23;20270;-78
2021/06/27 01:15:08;;;;;;;0.60;0.60;;;18.60;99.90;;;;;;6215700;23;20177;-78
2021/06/27 01:17:38;;;;;;;0.70;0.70;;;18.60;99.90;;;;;;6214500;23;20199;-76
2021/06/27 01:20:09;;;;;;;0.80;0.70;;;18.60;99.90;;;;;;6214966;23;20262;-78
2021/06/27 01:22:38;;;;;;;0.68;0.68;;;18.60;99.90;;;;;;6213923;23;20231;-78
2021/06/27 01:25:07;;;;;;;0.70;0.70;;;18.60;99.90;;;;;;6213783;23;20285;-78
2021/06/27 01:27:34;;;;;;;0.88;0.82;;;18.70;99.90;;;;;;6212542;23;20765;-78
2021/06/27 01:30:01;;;;;;;1.20;1.00;;;18.60;99.90;;;;;;6213650;23;20211;-78
2021/06/27 01:32:28;;;;;;;0.80;0.80;;;18.30;99.90;;;;;;6212735;23;21018;-77
2021/06/27 01:34:55;;;;;;;0.90;0.90;;;18.20;99.90;;;;;;6213739;23;20422;-78
2021/06/27 01:37:23;;;;;;;1.10;0.77;;;18.30;99.90;;;;;;6238247;23;20155;-79
2021/06/27 01:39:51;;;;;;;0.85;0.80;;;18.30;99.90;;;;;;6215987;23;20253;-78
2021/06/27 01:42:18;;;;;;;0.90;0.90;;;18.40;99.90;;;;;;6214020;23;20274;-78
2021/06/27 01:44:45;;;;;;;0.93;0.93;;;18.40;99.90;;;;;;6213462;23;20182;-78
2021/06/27 01:47:13;;;;;;;0.80;0.80;;;18.40;99.90;;;;;;6210567;23;20539;-77
2021/06/27 01:49:41;;;;;;;0.77;0.77;;;18.40;99.90;;;;;;6213131;23;20274;-77
2021/06/27 01:52:09;;;;;;;0.80;0.80;;;18.50;99.90;;;;;;6214045;23;20674;-77
2021/06/27 01:54:38;;;;;;;0.73;0.73;;;18.50;99.90;;;;;;6212834;23;20212;-78
2021/06/27 01:57:08;;;;;;;0.60;0.60;;;18.50;99.90;;;;;;6227831;22;20202;-78
2021/06/27 01:59:35;;;;;;;0.80;0.80;;;18.40;99.90;;;;;;6217381;23;20869;-78
2021/06/27 02:02:02;;;;;;;0.65;0.65;;;18.40;99.90;;;;;;6213855;23;20246;-78
2021/06/27 02:04:29;;;;;;;1.23;0.85;;;18.40;99.90;;;;;;6213243;23;20277;-78
2021/06/27 02:06:56;;;;;;;0.50;0.50;;;18.40;99.90;;;;;;6213486;23;20262;-78
2021/06/27 02:09:24;;;;;;;1.23;0.80;;;18.40;99.90;;;;;;6213444;23;20207;-78
2021/06/27 02:11:51;;;;;;;1.45;0.80;;;18.30;99.90;;;;;;6214024;23;20509;-78
2021/06/27 02:14:20;;;;;;;0.80;0.80;;;18.30;99.90;;;;;;6212653;23;20281;-78
2021/06/27 02:16:49;;;;;;;1.00;0.80;;;18.30;99.90;;;;;;6213368;23;20203;-78
2021/06/27 02:19:17;;;;;;;0.80;0.80;;;18.20;99.90;;;;;;6212587;23;20237;-78
2021/06/27 02:21:44;;;;;;;0.80;0.80;;;18.10;99.90;;;;;;6217834;23;20201;-79
2021/06/27 02:24:11;;;;;;;0.80;0.80;;;18.10;99.90;;;;;;6238195;23;20206;-77
2021/06/27 02:26:39;;;;;;;0.80;0.80;;;18.20;99.90;;;;;;6216911;23;20202;-78
2021/06/27 02:29:06;;;;;;;0.60;0.60;;;18.10;99.90;;;;;;6213547;23;20220;-79
2021/06/27 02:31:35;;;;;;;1.05;0.90;;;18.10;99.90;;;;;;6214062;23;20175;-78
2021/06/27 02:34:03;;;;;;;0.60;0.60;;;18.00;99.90;;;;;;6213102;23;20211;-78
2021/06/27 02:36:30;;;;;;;0.70;0.70;;;18.00;99.90;;;;;;6214160;23;20499;-78
2021/06/27 02:38:57;;;;;;;0.70;0.70;;;18.00;99.90;;;;;;6213290;23;20583;-78
2021/06/27 02:41:25;;;;;;;1.75;0.75;;;18.10;99.90;;;;;;6212767;23;20699;-78
2021/06/27 02:43:52;;;;;;;1.17;1.05;;;18.00;99.90;;;;;;6212174;23;20283;-78
2021/06/27 02:46:19;;;;;;;0.80;0.80;;;18.00;99.90;;;;;;6213205;23;20217;-78
2021/06/27 02:48:48;;;;;;;0.75;0.75;;;18.00;99.90;;;;;;6229447;23;20234;-79
2021/06/27 02:51:15;;;;;;;0.60;0.60;;;17.90;99.90;;;;;;6212779;23;20175;-77
2021/06/27 02:53:42;;;;;;;0.60;0.60;;;17.90;99.90;;;;;;6211431;23;20690;-78
2021/06/27 02:56:10;;;;;;;0.80;0.80;;;17.90;99.90;;;;;;6213167;23;20632;-77
2021/06/27 02:58:38;;;;;;;0.70;0.70;;;17.90;99.90;;;;;;6211896;23;20261;-79
2021/06/27 03:01:06;;;;;;;0.85;0.80;;;17.90;99.90;;;;;;6212707;23;20185;-78
2021/06/27 03:03:34;;;;;;;0.77;0.77;;;17.90;99.90;;;;;;6212334;23;20281;-77
2021/06/27 03:06:03;;;;;;;0.75;0.75;;;17.80;99.90;;;;;;6213207;23;20170;-77
2021/06/27 03:08:30;;;;;;;0.80;0.80;;;17.80;99.90;;;;;;6225276;23;20207;-79
2021/06/27 03:10:58;;;;;;;0.80;0.77;;;17.80;99.90;;;;;;6225775;23;20545;-78
2021/06/27 03:13:25;;;;;;;1.42;0.90;;;17.80;99.90;;;;;;6212004;23;20209;-79
2021/06/27 03:15:53;;;;;;;0.80;0.80;;;17.80;99.90;;;;;;6212047;23;20253;-79
2021/06/27 03:18:20;;;;;;;0.80;0.80;;;17.80;99.90;;;;;;6211583;23;20277;-78
2021/06/27 03:20:48;;;;;;;0.90;0.90;;;17.80;99.90;;;;;;6212477;23;20254;-79
2021/06/27 03:23:17;;;;;;;0.80;0.80;;;17.80;99.90;;;;;;6211924;23;20221;-78
2021/06/27 03:25:44;;;;;;;1.08;0.98;;;17.80;99.90;;;;;;6211332;23;20266;-78
2021/06/27 03:28:11;;;;;;;0.90;0.80;;;17.80;99.90;;;;;;6211534;23;20686;-77
2021/06/27 03:30:38;;;;;;;0.85;0.85;;;17.80;99.90;;;;;;6213551;23;20163;-77
2021/06/27 03:33:06;;;;;;;0.93;0.93;;;17.70;99.90;;;;;;6211534;23;20238;-78
2021/06/27 03:35:34;;;;;;;0.80;0.80;;;17.70;99.90;;;;;;6213217;23;20177;-78
2021/06/27 03:38:07;;;;;;;1.98;1.10;;;17.70;99.90;;;;;;6221366;23;20215;-79
2021/06/27 03:40:36;;;;;;;1.02;0.90;;;17.70;99.90;;;;;;6220083;22;20886;-78
2021/06/27 03:43:03;;;;;;;0.80;0.80;;;17.70;99.90;;;;;;6212643;23;20202;-78
2021/06/27 03:45:30;;;;;;;0.85;0.80;;;17.70;99.90;;;;;;6213482;23;20639;-77
2021/06/27 03:47:58;;;;;;;0.80;0.80;;;17.60;99.90;;;;;;6212096;23;20278;-78
2021/06/27 03:50:25;;;;;;;0.70;0.70;;;17.60;99.90;;;;;;6212060;23;20211;-78
2021/06/27 03:52:52;;;;;;;0.60;0.60;;;17.60;99.90;;;;;;6213473;23;20213;-77
2021/06/27 03:55:20;;;;;;;0.80;0.80;;;17.70;99.90;;;;;;6235969;23;20178;-79
2021/06/27 03:57:50;;;;;;;0.77;0.77;;;17.70;99.90;;;;;;6220879;23;20269;-78
2021/06/27 04:00:18;;;;;;;0.70;0.70;;;17.80;99.90;;;;;;6214580;23;20560;-78
2021/06/27 04:02:46;;;;;;;0.70;0.70;;;17.80;99.90;;;;;;6212896;23;20266;-78
2021/06/27 04:05:14;;;;;;;0.70;0.70;;;17.90;99.90;;;;;;6213575;23;20203;-78
2021/06/27 04:07:42;;;;;;;0.80;0.80;;;17.90;99.90;;;;;;6211675;23;20711;-78
2021/06/27 04:10:10;;;;;;;1.00;0.90;;;17.90;99.90;;;;;;6212819;23;20265;-77
2021/06/27 04:12:38;;;;;;;0.70;0.70;;;17.90;99.90;;;;;;6212076;23;20171;-78
2021/06/27 04:15:09;;;;;;;1.02;0.68;;;17.90;99.90;;;;;;6211666;23;20285;-78
2021/06/27 04:17:37;;;;;;;0.85;0.85;;;18.00;99.90;;;;;;6211575;23;20175;-79
2021/06/27 04:20:06;;;;;;;0.70;0.70;;;18.00;99.90;;;;;;6210674;23;20265;-77
2021/06/27 04:22:33;;;;;;;0.77;0.77;;;18.00;99.90;;;;;;6211095;23;20205;-77
2021/06/27 04:25:02;;;;;;;3.10;0.80;;;18.20;99.90;;;;;;6211587;23;20199;-79
2021/06/27 04:27:30;;;;;;;0.75;0.73;;;18.20;99.90;;;;;;6211784;23;20229;-78
2021/06/27 04:29:57;;;;;;;1.08;1.00;;;18.00;99.90;;;;;;6225732;23;20213;-78
2021/06/27 04:32:26;;;;;;;0.70;0.70;;;18.10;99.90;;;;;;6216839;23;20199;-78
2021/06/27 04:34:53;;;;;;;0.80;0.80;;;18.20;99.90;;;;;;6211819;23;20278;-78
2021/06/27 04:37:21;;;;;;;0.90;0.80;;;18.40;99.90;;;;;;6214157;23;20650;-78
2021/06/27 04:39:48;;;;;;;3.05;0.98;;;18.50;99.90;;;;;;6216987;23;20206;-79
2021/06/27 04:42:15;;;;;;;0.70;0.70;;;18.60;99.90;;;;;;6234599;22;20167;-78
2021/06/27 04:44:42;;;;;;;0.93;0.80;;;18.70;99.90;;;;;;6212695;23;20249;-78
2021/06/27 04:47:10;;;;;;;1.17;1.02;;;18.80;99.90;;;;;;6214282;23;20214;-77
2021/06/27 04:49:41;;;;;;;0.95;0.95;;;18.80;99.90;;;;;;6214452;23;20217;-78
2021/06/27 04:52:08;;;;;;;0.90;0.90;;;18.70;99.90;;;;;;6215100;23;20156;-78
2021/06/27 04:54:36;;;;;;;0.98;0.88;;;18.70;99.90;;;;;;6215147;23;20202;-78
2021/06/27 04:57:04;;;;;;;0.80;0.80;;;18.50;99.90;;;;;;6216037;23;20202;-78
2021/06/27 04:59:31;;;;;;;0.80;0.80;;;18.50;99.90;;;;;;6213997;23;20261;-78
2021/06/27 05:01:58;;;;;;;0.80;0.80;;;18.50;99.90;;;;;;6216565;23;20253;-79
2021/06/27 05:04:26;;;;;;;1.77;1.00;;;18.60;99.90;;;;;;6216268;23;20282;-78
2021/06/27 05:06:54;;;;;;;1.13;1.02;;;18.60;99.90;;;;;;6216100;23;20250;-79
2021/06/27 05:09:21;;;;;;;1.20;1.10;;;18.50;99.90;;;;;;6213916;23;20285;-79
2021/06/27 05:11:49;;;;;;;1.08;1.08;;;18.60;99.90;;;;;;6214226;23;20175;-79
2021/06/27 05:14:16;;;;;;;1.23;1.10;;;18.60;99.90;;;;;;6212398;23;20273;-79
2021/06/27 05:16:43;;;;;;;2.67;1.13;;;18.70;99.90;;;;;;6214315;23;20202;-79
2021/06/27 05:19:10;;;;;;;1.08;1.00;;;18.70;99.90;;;;;;6214026;23;20230;-79
2021/06/27 05:21:37;;;;;;;1.75;1.65;;;18.70;99.90;;;;;;6224451;23;20199;-79
2021/06/27 05:24:07;;;;;;;1.70;1.30;;;18.60;99.90;;;;;;6224683;22;20241;-79
2021/06/27 05:26:34;;;;;;;1.85;1.30;;;18.60;99.90;;;;;;6230296;23;20182;-80
2021/06/27 05:29:01;;;;;;;1.35;1.15;;;18.60;99.90;;;;;;6230228;23;20211;-79
2021/06/27 05:31:32;;;;;;;1.02;1.02;;;18.60;99.90;;;;;;6218704;23;20202;-79
2021/06/27 05:33:59;;;;;;;1.05;1.05;;;18.70;99.90;;;;;;6215785;23;20257;-79
2021/06/27 05:36:27;;;;;;;1.02;0.95;;;18.90;99.90;;;;;;6214767;23;20183;-79
2021/06/27 05:38:54;;;;;;;1.88;1.00;;;19.10;99.90;;;;;;6215009;23;20286;-79
2021/06/27 05:41:23;;;;;;;2.03;1.02;;;19.10;99.90;;;;;;6215470;23;20254;-79
2021/06/27 05:43:50;;;;;;;1.40;1.30;;;19.00;99.90;;;;;;6213874;23;20231;-79
2021/06/27 05:46:17;;;;;;;1.30;1.20;;;18.90;99.90;;;;;;6215490;23;20175;-79
2021/06/27 05:48:45;;;;;;;1.20;1.10;;;19.00;99.90;;;;;;6214119;23;20285;-79
2021/06/27 05:51:12;;;;;;;1.50;1.20;;;19.20;99.90;;;;;;6215078;23;20253;-78
2021/06/27 05:53:40;;;;;;;1.35;1.25;;;19.40;99.90;;;;;;6215128;23;20226;-79
2021/06/27 05:56:11;;;;;;;1.38;1.23;;;19.50;99.90;;;;;;6215596;23;20207;-80
2021/06/27 05:58:40;;;;;;;1.20;1.10;;;19.50;99.90;;;;;;6213484;23;20289;-79
2021/06/27 06:01:08;;;;;;;1.33;1.25;;;19.50;99.90;;;;;;6214739;23;20202;-79
2021/06/27 06:03:36;;;;;;;2.88;1.00;;;19.40;99.90;;;;;;6216053;23;20249;-79
2021/06/27 06:06:04;;;;;;;1.90;1.00;;;19.30;99.90;;;;;;6216133;23;20175;-79
2021/06/27 06:08:31;;;;;;;0.88;0.88;;;19.30;99.90;;;;;;6216140;23;20290;-80
2021/06/27 06:10:58;;;;;;;1.27;1.17;;;19.30;99.90;;;;;;6217183;23;20250;-79
2021/06/27 06:13:25;;;;;;;1.02;1.02;;;19.30;99.90;;;;;;6240068;22;20207;-80
2021/06/27 06:15:54;;;;;;;3.70;1.10;;;19.20;99.90;;;;;;6232220;23;20175;-79
2021/06/27 06:18:21;;;;;;;1.75;1.25;;;19.00;99.90;;;;;;6215493;23;20205;-79
2021/06/27 06:20:48;;;;;;;1.10;1.10;;;19.00;99.90;;;;;;6214760;23;20202;-80
2021/06/27 06:23:16;;;;;;;1.30;1.20;;;19.10;99.90;;;;;;6213858;23;20746;-79
2021/06/27 06:25:43;;;;;;;1.02;1.02;;;19.10;99.90;;;;;;6213592;23;20246;-78
2021/06/27 06:28:10;;;;;;;1.23;1.13;;;19.30;99.90;;;;;;6213386;23;20195;-78
2021/06/27 06:30:37;;;;;;;0.98;0.98;;;19.50;99.90;;;;;;6213820;23;20207;-78
2021/06/27 06:33:10;;;;;;;2.35;1.10;;;19.60;99.90;;;;;;6216114;23;20205;-79
2021/06/27 06:35:37;;;;;;;1.38;1.10;;;19.60;99.90;;;;;;6216062;23;20175;-79
2021/06/27 06:38:05;;;;;;;1.13;0.80;;;19.50;99.90;;;;;;6215503;23;20726;-79
2021/06/27 06:40:32;;;;;;;1.10;1.10;;;19.40;99.90;;;;;;6214249;23;20226;-78
2021/06/27 06:43:00;;;;;;;1.00;1.00;;;19.40;99.90;;;;;;6215322;23;20175;-79
2021/06/27 06:45:28;;;;;;;1.35;1.00;;;19.40;99.90;;;;;;6213585;23;20599;-79
2021/06/27 06:47:56;;;;;;;1.30;1.20;;;19.50;99.90;;;;;;6213580;23;20374;-79
2021/06/27 06:50:25;;;;;;;1.40;1.30;;;19.60;99.90;;;;;;6213600;23;20209;-79
2021/06/27 06:52:52;;;;;;;2.40;0.85;;;19.80;99.90;;;;;;6214870;23;20570;-79
2021/06/27 06:55:21;;;;;;;1.17;1.05;;;19.80;99.90;;;;;;6213826;23;20205;-78
2021/06/27 06:57:48;;;;;;;1.30;1.17;;;19.80;99.90;;;;;;6221908;22;20201;-78
2021/06/27 07:00:17;;;;;;;1.55;1.10;;;19.60;99.90;;;;;;6235259;23;20226;-79
2021/06/27 07:02:44;;;;;;;1.05;0.95;;;19.60;99.90;;;;;;6218308;23;20670;-79
2021/06/27 07:05:12;;;;;;;1.20;1.10;;;19.50;99.90;;;;;;6232438;22;20202;-79
2021/06/27 07:07:42;;;;;;;1.10;0.90;;;19.60;99.90;;;;;;6216168;23;20202;-78
2021/06/27 07:10:10;;;;;;;1.10;1.00;;;19.60;99.90;;;;;;6217450;23;20202;-77
2021/06/27 07:12:37;;;;;;;1.48;1.20;;;19.70;99.90;;;;;;6216205;23;20183;-78
2021/06/27 07:15:06;;;;;;;1.30;1.20;;;19.80;99.90;;;;;;6216033;23;20617;-78
2021/06/27 07:17:33;;;;;;;1.45;1.23;;;19.90;99.90;;;;;;6215528;23;20198;-78
2021/06/27 07:20:00;;;;;;;1.25;1.10;;;20.00;99.90;;;;;;6215269;23;20237;-77
2021/06/27 07:22:28;;;;;;;3.85;1.20;;;20.00;99.90;;;;;;6216117;23;20254;-79
2021/06/27 07:24:56;;;;;;;1.75;1.05;;;20.10;99.90;;;;;;6215395;23;20226;-78
2021/06/27 07:27:23;;;;;;;1.55;1.45;;;20.40;99.90;;;;;;6216105;23;20250;-77
2021/06/27 07:29:51;;;;;;;2.53;1.05;;;20.60;99.90;;;;;;6215455;23;20218;-77
2021/06/27 07:32:18;;;;;;;1.25;1.15;;;20.90;99.90;;;;;;6216314;23;20360;-78
2021/06/27 07:34:45;;;;;;;1.90;1.45;;;21.00;99.90;;;;;;6216183;23;20202;-78
2021/06/27 07:37:12;;;;;;;1.10;1.10;;;21.00;99.90;;;;;;6216863;23;20171;-79
2021/06/27 07:39:40;;;;;;;1.75;1.35;;;21.10;99.90;;;;;;6215677;23;20233;-79
2021/06/27 07:42:09;;;;;;;1.35;1.08;;;21.20;99.90;;;;;;6215943;23;20258;-78
2021/06/27 07:44:36;;;;;;;3.22;1.00;;;21.20;99.90;;;;;;6217829;23;20234;-79
2021/06/27 07:47:03;;;;;;;1.23;1.13;;;21.20;99.90;;;;;;6217211;23;20256;-78
2021/06/27 07:49:31;;;;;;;1.00;1.00;;;21.10;99.90;;;;;;6215647;23;20231;-78
2021/06/27 07:51:58;;;;;;;1.00;1.00;;;21.00;99.90;;;;;;6215975;23;20659;-78
2021/06/27 07:54:25;;;;;;;1.75;1.23;;;21.10;99.90;;;;;;6214042;23;20596;-78
2021/06/27 07:56:52;;;;;;;1.70;1.20;;;21.30;99.90;;;;;;6230179;22;20171;-78
2021/06/27 07:59:21;;;;;;;1.83;1.20;;;21.90;99.90;;;;;;6214092;23;20274;-77
2021/06/27 08:01:48;;;;;;;1.20;1.00;;;22.20;99.90;;;;;;6214273;23;20394;-78
2021/06/27 08:04:16;;;;;;;1.45;1.20;;;22.30;99.90;;;;;;6214631;23;20222;-77
2021/06/27 08:06:43;;;;;;;1.42;1.10;;;22.50;99.90;;;;;;6214227;23;20682;-78
2021/06/27 08:09:10;;;;;;;1.77;0.98;;;22.90;99.90;;;;;;6214068;23;20229;-77
2021/06/27 08:11:37;;;;;;;1.17;1.10;;;23.00;99.90;;;;;;6213896;23;20702;-79
2021/06/27 08:14:04;;;;;;;1.23;1.13;;;23.10;99.90;;;;;;6214086;23;20269;-78
2021/06/27 08:16:33;;;;;;;1.13;1.02;;;23.20;99.90;;;;;;6213937;23;20249;-80
2021/06/27 08:19:00;;;;;;;2.47;1.10;;;23.10;99.90;;;;;;6214811;23;20207;-78
2021/06/27 08:21:28;;;;;;;1.10;1.10;;;23.00;99.90;;;;;;6216387;23;20658;-78
2021/06/27 08:23:55;;;;;;;1.00;1.00;;;23.10;99.90;;;;;;6216154;23;20268;-79
2021/06/27 08:26:23;;;;;;;1.80;1.42;;;23.10;99.90;;;;;;6217107;23;20686;-79
2021/06/27 08:28:50;;;;;;;3.75;1.13;;;23.10;99.90;;;;;;6216953;23;20233;-78
2021/06/27 08:31:18;;;;;;;1.10;1.05;;;23.10;99.90;;;;;;6239254;23;20174;-81
2021/06/27 08:33:47;;;;;;;0.90;0.80;;;23.40;99.90;;;;;;6218509;23;20170;-79
2021/06/27 08:36:14;;;;;;;2.63;1.20;;;23.70;99.90;;;;;;6219754;23;20518;-78
2021/06/27 08:41:28;;;;;;;1.05;1.05;;;24.30;99.90;;;;;;6217455;23;20174;-79
2021/06/27 08:43:57;;;;;;;1.13;1.05;;;24.20;99.90;;;;;;6218551;23;20203;-79
2021/06/27 08:46:26;;;;;;;1.00;1.00;;;24.20;99.90;;;;;;6228880;23;20159;-79
2021/06/27 08:48:55;;;;;;;1.00;0.80;;;24.20;99.90;;;;;;6222689;23;20680;-80
2021/06/27 08:51:23;;;;;;;1.25;1.15;;;24.30;99.90;;;;;;6219106;23;20231;-79
2021/06/27 08:53:53;;;;;;;2.33;1.02;;;24.40;99.90;;;;;;6218220;23;20203;-79
2021/06/27 08:56:20;;;;;;;1.63;1.13;;;24.60;99.90;;;;;;6217835;23;20217;-78
2021/06/27 08:58:47;;;;;;;1.10;0.95;;;24.50;99.90;;;;;;6217106;23;20227;-79
2021/06/27 09:01:18;;;;;;;1.00;0.90;;;24.50;99.90;;;;;;6217345;23;20259;-78
2021/06/27 09:03:46;;;;;;;2.45;1.10;;;24.70;99.90;;;;;;6218735;23;20227;-79
2021/06/27 09:06:24;;;;;;;2.10;1.08;;;24.80;99.90;;;;;;6218064;23;20181;-78
2021/06/27 09:09:09;;;;;;;0.90;0.90;;;25.00;99.90;;;;;;6217731;23;20277;-79
2021/06/27 09:11:36;;;;;;;0.73;0.73;;;25.20;99.90;;;;;;6217580;23;20166;-78
2021/06/27 09:14:04;;;;;;;1.75;1.20;;;25.40;99.90;;;;;;6216753;23;20199;-80
2021/06/27 09:16:32;;;;;;;1.92;0.90;;;25.30;99.90;;;;;;6229748;23;20175;-79
2021/06/27 09:19:02;;;;;;;1.17;1.00;;;25.30;99.90;;;;;;6218778;23;20591;-78
2021/06/27 09:21:31;;;;;;;1.27;1.00;;;25.20;99.90;;;;;;6217334;23;20547;-78
2021/06/27 09:23:58;;;;;;;1.33;1.10;;;25.00;99.90;;;;;;6216136;23;20187;-78
2021/06/27 09:26:28;;;;;;;2.35;0.90;;;24.90;99.90;;;;;;6217206;23;20179;-78
2021/06/27 09:28:56;;;;;;;1.10;1.10;;;25.10;99.90;;;;;;6216122;23;20675;-79
2021/06/27 09:31:34;;;;;;;1.02;1.02;;;25.20;99.90;;;;;;6216139;23;20175;-78
2021/06/27 09:34:03;;;;;;;1.35;1.02;;;25.20;99.90;;;;;;6216633;23;20198;-79
2021/06/27 09:36:32;;;;;;;1.23;1.00;;;25.50;99.90;;;;;;6220842;23;20210;-81
2021/06/27 09:39:08;;;;;;;0.90;0.90;;;25.50;99.90;;;;;;6228967;23;20194;-78
2021/06/27 09:41:37;;;;;;;2.35;1.10;;;25.50;99.90;;;;;;6216500;23;20202;-78
2021/06/27 09:44:07;;;;;;;1.73;1.00;;;25.40;99.90;;;;;;6216128;23;20202;-78
2021/06/27 09:46:37;;;;;;;1.38;1.00;;;25.50;99.90;;;;;;6216235;23;20175;-79
2021/06/27 09:49:07;;;;;;;1.42;1.00;;;25.40;99.90;;;;;;6216798;23;20203;-78
2021/06/27 09:51:37;;;;;;;1.70;1.02;;;25.50;99.90;;;;;;6217646;23;20182;-79
2021/06/27 09:54:13;;;;;;;1.80;0.90;;;25.40;99.90;;;;;;6216194;23;20241;-78
2021/06/27 09:56:40;;;;;;;0.70;0.70;;;25.60;99.90;;;;;;6217127;23;20538;-79
2021/06/27 09:59:10;;;;;;;0.90;0.90;;;25.90;99.90;;;;;;6217496;23;20248;-79
2021/06/27 10:01:38;;;;;;;1.23;1.00;;;26.30;99.90;;;;;;6228513;23;20159;-79
2021/06/27 10:04:09;;;;;;;0.93;0.90;;;26.50;99.90;;;;;;6226553;23;20233;-79
2021/06/27 10:06:49;;;;;;;2.22;0.90;;;26.70;99.90;;;;;;6216230;23;20243;-80
2021/06/27 10:09:20;;;;;;;1.13;0.90;;;26.90;99.90;;;;;;6215841;23;20689;-79
2021/06/27 10:12:11;;;;;;;0.80;0.80;;;26.70;99.90;;;;;;6216058;23;20189;-79
2021/06/27 10:14:56;;;;;;;2.38;0.98;;;26.50;99.90;;;;;;6193861;23;20226;-78
2021/06/27 10:17:26;;;;;;;0.80;0.80;;;26.60;99.90;;;;;;6217100;23;20155;-78
2021/06/27 10:19:54;;;;;;;1.00;1.00;;;26.60;99.90;;;;;;6216388;23;20309;-80
2021/06/27 10:22:26;;;;;;;0.70;0.70;;;26.60;99.90;;;;;;6216550;23;20262;-79
2021/06/27 10:24:54;;;;;;;0.80;0.80;;;26.70;99.90;;;;;;6217936;23;20199;-80
2021/06/27 10:27:22;;;;;;;0.90;0.90;;;27.00;99.90;;;;;;6222596;23;20198;-80
2021/06/27 10:29:50;;;;;;;2.28;1.05;;;27.30;99.90;;;;;;6226152;23;20257;-80
2021/06/27 10:32:19;;;;;;;0.80;0.80;;;27.30;99.90;;;;;;6216660;23;20241;-79
2021/06/27 10:34:46;;;;;;;0.95;0.80;;;27.20;99.90;;;;;;6215502;23;20230;-79
2021/06/27 10:37:17;;;;;;;1.00;0.88;;;27.20;99.90;;;;;;6216284;23;20536;-78
2021/06/27 10:39:58;;;;;;;1.65;0.80;;;27.20;99.90;;;;;;6215750;23;20569;-78
2021/06/27 10:42:54;;;;;;;1.55;0.80;;;27.30;99.90;;;;;;6215692;23;20195;-79
2021/06/27 10:45:23;;;;;;;1.23;1.00;;;27.40;99.90;;;;;;6215298;23;20693;-79
2021/06/27 10:47:50;;;;;;;0.75;0.75;;;27.50;99.90;;;;;;6230847;23;20226;-79
2021/06/27 10:50:19;;;;;;;0.80;0.80;;;27.50;99.90;;;;;;6221642;23;20233;-78
2021/06/27 10:53:07;;;;;;;0.77;0.77;;;27.70;99.90;;;;;;6216661;23;20253;-80
2021/06/27 10:55:43;;;;;;;0.82;0.80;;;27.80;99.90;;;;;;6208751;23;20294;-78
2021/06/27 10:58:12;;;;;;;0.82;0.82;;;27.90;99.90;;;;;;6216282;23;20578;-78
2021/06/27 11:01:05;;;;;;;0.80;0.80;;;28.00;99.90;;;;;;6215171;23;20230;-80
2021/06/27 11:03:37;;;;;;;1.00;0.90;;;28.20;99.90;;;;;;6216393;23;20179;-79
2021/06/27 11:06:06;;;;;;;1.77;0.70;;;28.20;99.90;;;;;;6215397;23;20222;-80
2021/06/27 11:08:36;;;;;;;0.90;0.90;;;28.40;99.90;;;;;;6215277;23;20251;-79
2021/06/27 11:11:24;;;;;;;1.23;0.90;;;28.30;99.90;;;;;;6214594;23;20748;-78
2021/06/27 11:14:15;;;;;;;0.88;0.88;;;28.30;99.90;;;;;;6216080;23;20155;-78
2021/06/27 11:16:59;;;;;;;1.15;0.90;;;28.40;99.90;;;;;;6213065;23;20202;-80
2021/06/27 11:19:28;;;;;;;0.85;0.70;;;28.60;99.90;;;;;;6230428;23;20573;-80
2021/06/27 11:22:20;;;;;;;0.85;0.85;;;29.00;99.90;;;;;;6215347;23;20262;-79
2021/06/27 11:24:49;;;;;;;0.80;0.80;;;29.20;99.90;;;;;;6215331;23;20202;-79
2021/06/27 11:27:35;;;;;;;0.90;0.90;;;29.20;99.90;;;;;;6214314;23;20695;-79
2021/06/27 11:30:22;;;;;;;0.93;0.75;;;29.00;99.90;;;;;;6213635;23;20199;-78
2021/06/27 11:32:50;;;;;;;0.95;0.80;;;28.80;99.90;;;;;;6218653;23;20183;-79
2021/06/27 11:35:48;;;;;;;1.02;0.70;;;28.90;99.90;;;;;;6228117;23;20198;-78
2021/06/27 11:38:41;;;;;;;1.58;0.80;;;29.00;99.90;;;;;;6217371;23;20199;-79
2021/06/27 11:41:11;;;;;;;1.83;0.70;;;29.00;99.90;;;;;;6215355;23;20528;-78
2021/06/27 11:43:59;;;;;;;0.80;0.80;;;29.00;99.90;;;;;;6216090;23;20253;-79
2021/06/27 11:46:34;;;;;;;4.30;0.70;;;29.20;99.90;;;;;;6215211;23;20210;-79
2021/06/27 11:49:04;;;;;;;0.90;0.80;;;29.30;99.90;;;;;;6215649;23;20269;-79
2021/06/27 11:51:40;;;;;;;1.05;0.70;;;29.30;99.90;;;;;;6214678;23;20266;-79
2021/06/27 11:54:09;;;;;;;0.80;0.80;;;29.30;99.90;;;;;;6214911;23;20207;-79
2021/06/27 11:57:00;;;;;;;0.80;0.80;;;29.60;99.90;;;;;;6214878;23;20222;-76
2021/06/27 11:59:30;;;;;;;3.03;0.80;;;29.90;99.90;;;;;;6215108;23;20202;-80
2021/06/27 12:02:12;;;;;;;0.85;0.70;;;30.00;99.90;;;;;;6216304;23;20257;-79
2021/06/27 12:04:49;;;;;;;0.75;0.75;;;30.00;99.90;;;;;;6215074;23;20159;-80
2021/06/27 12:07:33;;;;;;;1.38;0.82;;;30.00;99.90;;;;;;6215836;23;20230;-79
2021/06/27 12:10:04;;;;;;;0.70;0.70;;;30.00;99.90;;;;;;6229994;23;20198;-80
2021/06/27 12:12:36;;;;;;;1.00;0.70;;;30.00;99.90;;;;;;6215236;23;20222;-79
2021/06/27 12:15:08;;;;;;;1.13;0.70;;;30.00;99.90;;;;;;6215398;23;20552;-80
2021/06/27 12:17:35;;;;;;;0.73;0.73;;;30.10;99.90;;;;;;6215422;23;20663;-79
2021/06/27 12:20:04;;;;;;;1.27;0.70;;;30.10;99.90;;;;;;6226667;23;20206;-80
2021/06/27 12:22:32;;;;;;;0.95;0.95;;;30.00;99.90;;;;;;6218054;23;20202;-80
2021/06/27 12:25:03;;;;;;;0.68;0.60;;;30.30;99.90;;;;;;6214928;23;20701;-80
2021/06/27 12:27:30;;;;;;;1.15;0.60;;;30.50;99.90;;;;;;6215561;23;20217;-80
2021/06/27 12:29:58;;;;;;;0.80;0.80;;;30.60;99.90;;;;;;6214604;23;20226;-80
2021/06/27 12:32:26;;;;;;;0.65;0.65;;;30.70;99.90;;;;;;6215451;23;20519;-80
2021/06/27 12:34:57;;;;;;;0.70;0.70;;;31.10;99.90;;;;;;6214841;23;20587;-80
2021/06/27 12:37:27;;;;;;;1.45;0.90;;;31.10;99.90;;;;;;6215741;23;20179;-80
2021/06/27 12:39:54;;;;;;;1.13;0.90;;;31.00;99.90;;;;;;6217305;23;20221;-80
2021/06/27 12:42:21;;;;;;;0.68;0.68;;;31.00;99.90;;;;;;6217442;23;20241;-80
2021/06/27 12:44:49;;;;;;;1.05;0.65;;;30.90;99.90;;;;;;6215236;23;20536;-79
2021/06/27 12:47:30;;;;;;;0.80;0.80;;;30.90;99.90;;;;;;6215527;23;20206;-79
2021/06/27 12:49:57;;;;;;;0.93;0.80;;;31.20;99.90;;;;;;6214701;23;20270;-79
2021/06/27 12:52:25;;;;;;;1.17;0.77;;;31.30;99.90;;;;;;6215072;23;20677;-79
2021/06/27 12:54:52;;;;;;;0.95;0.70;;;31.30;99.90;;;;;;6214678;23;20223;-78
2021/06/27 12:57:21;;;;;;;1.00;0.90;;;31.30;99.90;;;;;;6216260;23;20543;-79
2021/06/27 12:59:53;;;;;;;1.38;0.90;;;31.30;99.90;;;;;;6220627;23;20628;-80
2021/06/27 13:02:32;;;;;;;1.13;1.00;;;31.20;99.90;;;;;;6217349;23;20171;-82